Terminal Aerodrome Forecast
Issued by NWS

Home | Current Version | Previous Version | Text Only | Print | Product List | Glossary Off
Versions: 1 2 3 4 5 6 7 8 9 10 11 12 13 14 15 16

558
FTUS45 KRIW 061132
TAFCPR
TAF
KCPR 061132Z 0612/0712 23011G17KT P6SM FEW050
     FM061700 21008KT P6SM SCT050
     FM062100 05007KT P6SM SCT040 BKN120
     FM070400 04010KT P6SM -SN OVC025=

USA.gov is the U.S. government's official web portal to all federal, state and local government web resources and services.